Time;durP1;ratioP1;P1;durP2;ratioP2;P2;SDS_P1;SDS_P2;PMS_P1;PMS_P2;Temp;Humidity;BMP_temperature;BMP_pressure;BME280_temperature;BME280_humidity;BME280_pressure;Samples;Min_cycle;Max_cycle;Signal;HPM_P1;HPM_P2
2023/01/09 00:01:48;;;;;;;18.13;7.82;;;;;;;4.46;64.99;91257.50;2051213;69;20213;-72
2023/01/09 00:04:13;;;;;;;13.98;7.90;;;;;;;4.32;65.01;91270.56;2051258;69;20162;-72
2023/01/09 00:06:41;;;;;;;15.30;7.75;;;;;;;4.38;64.78;91259.78;2051219;69;20538;-73
2023/01/09 00:09:07;;;;;;;14.93;7.25;;;;;;;4.39;64.60;91246.56;2051040;69;20142;-71
2023/01/09 00:11:32;;;;;;;14.68;6.72;;;;;;;4.10;66.68;91253.22;2051288;70;20618;-71
2023/01/09 00:13:58;;;;;;;13.00;7.00;;;;;;;4.17;66.11;91257.84;2051275;69;20252;-71
2023/01/09 00:16:25;;;;;;;12.05;6.90;;;;;;;4.31;65.72;91247.56;2051056;69;20308;-76
2023/01/09 00:18:53;;;;;;;12.90;6.90;;;;;;;4.28;65.54;91239.69;2050768;70;20149;-74
2023/01/09 00:21:22;;;;;;;11.30;7.10;;;;;;;3.72;67.51;91248.84;2051246;70;20166;-72
2023/01/09 00:23:49;;;;;;;12.77;6.90;;;;;;;4.00;66.77;91245.00;2051425;69;20153;-72
2023/01/09 00:26:17;;;;;;;16.40;7.78;;;;;;;4.07;66.75;91241.25;2051222;69;20158;-71
2023/01/09 00:28:45;;;;;;;13.90;7.28;;;;;;;4.13;65.88;91229.03;2050792;70;20146;-71
2023/01/09 00:31:13;;;;;;;12.23;7.45;;;;;;;4.25;66.09;91236.03;2050738;70;20142;-73
2023/01/09 00:33:47;;;;;;;9.32;5.57;;;;;;;4.13;66.47;91220.69;2051455;70;20158;-72
2023/01/09 00:36:13;;;;;;;10.45;6.20;;;;;;;4.19;66.21;91230.13;2051358;70;20165;-71
2023/01/09 00:38:39;;;;;;;10.52;6.38;;;;;;;4.22;66.16;91234.47;2051386;69;20169;-71
2023/01/09 00:41:08;;;;;;;13.75;6.40;;;;;;;4.31;65.73;91241.28;2051221;70;20122;-72
2023/01/09 00:43:39;;;;;;;10.65;6.05;;;;;;;4.25;65.09;91226.97;2051524;69;20142;-72
2023/01/09 00:46:06;;;;;;;12.13;5.40;;;;;;;4.10;65.78;91230.22;2051250;70;20526;-72
2023/01/09 00:48:37;;;;;;;10.52;5.90;;;;;;;3.90;66.65;91244.38;2051202;69;20158;-72
2023/01/09 00:51:03;;;;;;;11.55;6.55;;;;;;;4.01;67.15;91246.44;2051164;69;20294;-70
2023/01/09 00:53:31;;;;;;;15.73;7.00;;;;;;;4.22;66.05;91242.84;2051081;70;20210;-72
2023/01/09 00:56:04;;;;;;;11.38;6.38;;;;;;;4.19;66.13;91240.53;2050480;70;20233;-72
2023/01/09 00:58:31;;;;;;;;;;;;;;;4.22;65.86;91248.41;2051305;70;20250;-72
2023/01/09 01:00:58;;;;;;;11.40;6.13;;;;;;;4.21;66.21;91243.44;2051233;70;20054;-77
2023/01/09 01:03:23;;;;;;;10.70;5.75;;;;;;;4.27;66.01;91247.31;2050524;70;20162;-76
2023/01/09 01:08:34;;;;;;;9.90;5.68;;;;;;;4.30;65.14;91245.38;2051247;70;20138;-77
2023/01/09 01:11:04;;;;;;;11.52;6.32;;;;;;;4.03;66.47;91234.69;2050785;69;20483;-78
2023/01/09 01:13:31;;;;;;;10.27;5.80;;;;;;;4.14;66.56;91238.84;2051411;70;20127;-72
2023/01/09 01:15:57;;;;;;;11.48;5.80;;;;;;;4.11;66.50;91235.19;2051470;70;20216;-72
2023/01/09 01:18:23;;;;;;;10.48;5.50;;;;;;;4.12;66.28;91228.28;2053798;70;20197;-73
2023/01/09 01:20:50;;;;;;;10.38;5.70;;;;;;;4.19;66.22;91238.47;2054377;69;20174;-73
2023/01/09 01:23:16;;;;;;;10.60;5.85;;;;;;;4.25;65.90;91236.03;2054532;69;20281;-73
2023/01/09 01:25:42;;;;;;;9.75;5.55;;;;;;;4.32;65.54;91245.50;2054176;69;20584;-73
2023/01/09 01:28:12;;;;;;;8.90;4.82;;;;;;;4.41;65.17;91236.28;2054435;69;20238;-72
2023/01/09 01:30:39;;;;;;;10.25;5.32;;;;;;;4.37;65.31;91235.31;2054550;69;20154;-72
2023/01/09 01:33:05;;;;;;;12.95;5.40;;;;;;;4.37;64.97;91227.69;2053945;70;20246;-72
2023/01/09 01:35:31;;;;;;;8.93;5.25;;;;;;;4.35;65.29;91224.78;2054460;69;20166;-72
2023/01/09 01:37:57;;;;;;;7.57;4.53;;;;;;;4.27;66.08;91235.44;2053810;69;20161;-72
2023/01/09 01:40:23;;;;;;;7.25;4.25;;;;;;;4.49;65.07;91231.22;2053759;70;20172;-74
2023/01/09 01:42:52;;;;;;;5.32;3.40;;;;;;;4.52;65.48;91229.25;2054349;69;20289;-74
2023/01/09 01:45:25;;;;;;;6.00;3.30;;;;;;;4.62;64.43;91220.75;2054309;69;20178;-78
2023/01/09 01:48:01;;;;;;;7.63;3.90;;;;;;;4.31;66.21;91221.75;2053553;70;20149;-78
2023/01/09 01:50:38;;;;;;;7.95;4.13;;;;;;;4.41;65.75;91225.16;2054443;69;20158;-75
2023/01/09 01:53:16;;;;;;;7.80;4.60;;;;;;;4.38;65.54;91229.13;2054246;69;20130;-75
2023/01/09 01:56:00;;;;;;;6.95;4.55;;;;;;;4.36;65.65;91234.59;2053739;69;20145;-78
2023/01/09 01:58:26;;;;;;;7.45;4.18;;;;;;;4.34;65.83;91249.13;2054471;69;20154;-78
2023/01/09 02:00:54;;;;;;;7.43;4.40;;;;;;;4.46;65.52;91248.41;2054131;69;20156;-79
2023/01/09 02:03:29;;;;;;;6.50;3.90;;;;;;;4.46;65.49;91246.34;2054342;69;20261;-78
2023/01/09 02:05:57;;;;;;;6.35;3.70;;;;;;;4.51;64.63;91245.25;2054345;69;20602;-77
2023/01/09 02:08:23;;;;;;;6.78;3.63;;;;;;;4.47;65.53;91235.91;2054347;69;20261;-72
2023/01/09 02:10:51;;;;;;;6.95;3.92;;;;;;;4.23;66.13;91224.78;2054169;69;20672;-71
2023/01/09 02:13:17;;;;;;;7.43;4.10;;;;;;;4.30;66.78;91225.88;2054216;69;20140;-72
2023/01/09 02:16:02;;;;;;;7.65;4.05;;;;;;;4.33;66.13;91217.03;2054119;69;20176;-71
2023/01/09 02:18:45;;;;;;;5.97;2.90;;;;;;;4.41;66.61;91213.28;2054555;69;20238;-72
2023/01/09 02:21:29;;;;;;;7.97;3.88;;;;;;;4.23;66.38;91213.66;2054273;69;20152;-72
2023/01/09 02:24:27;;;;;;;7.03;4.25;;;;;;;4.31;66.61;91211.34;2054112;69;20166;-71
2023/01/09 02:27:02;;;;;;;8.90;4.15;;;;;;;4.33;66.86;91214.25;2054184;69;20597;-78
2023/01/09 02:30:02;;;;;;;7.95;4.65;;;;;;;4.36;66.96;91225.53;2054035;69;20146;-77
2023/01/09 02:32:49;;;;;;;8.32;4.88;;;;;;;4.40;66.62;91218.13;2054227;69;20150;-78
2023/01/09 02:35:39;;;;;;;6.13;3.72;;;;;;;4.61;65.74;91228.38;2053964;70;20232;-76
2023/01/09 02:38:36;;;;;;;6.07;3.72;;;;;;;4.51;66.37;91225.75;2053765;70;20190;-76
2023/01/09 02:41:11;;;;;;;5.95;3.63;;;;;;;4.58;66.54;91233.13;2054307;69;20184;-72
2023/01/09 02:43:39;;;;;;;6.63;3.92;;;;;;;4.57;66.21;91225.34;2054174;69;20278;-72
2023/01/09 02:46:04;;;;;;;7.63;4.50;;;;;;;4.48;66.67;91229.72;2054149;69;20154;-71
2023/01/09 02:48:31;;;;;;;3.17;1.77;;;;;;;4.81;65.05;91212.84;2054276;69;20149;-77
2023/01/09 02:51:19;;;;;;;7.90;4.22;;;;;;;4.41;66.35;91216.78;2054303;69;20189;-78
2023/01/09 02:54:00;;;;;;;6.60;4.13;;;;;;;4.44;66.83;91215.56;2054448;69;20189;-75
2023/01/09 02:56:32;;;;;;;10.30;4.25;;;;;;;4.55;66.49;91216.91;2054020;69;20220;-74
2023/01/09 02:59:11;;;;;;;7.70;4.00;;;;;;;4.39;67.51;91218.72;2054220;69;20220;-75
2023/01/09 03:01:43;;;;;;;9.38;4.18;;;;;;;4.50;66.83;91220.78;2054343;69;20142;-78
2023/01/09 03:04:55;;;;;;;9.70;4.35;;;;;;;4.66;66.48;91227.28;2054255;69;20160;-75
2023/01/09 03:07:54;;;;;;;6.03;3.70;;;;;;;4.75;66.34;91232.00;2054657;69;20174;-74
2023/01/09 03:10:41;;;;;;;5.82;3.30;;;;;;;4.77;66.26;91240.50;2055803;69;20180;-73
2023/01/09 03:13:11;;;;;;;5.25;3.55;;;;;;;4.95;65.46;91265.16;2055667;70;20142;-72
2023/01/09 03:15:40;;;;;;;7.65;4.70;;;;;;;4.71;66.15;91258.91;2056396;69;20149;-72
2023/01/09 03:18:09;;;;;;;6.90;3.67;;;;;;;4.31;67.96;91260.75;2054560;69;20249;-73
2023/01/09 03:20:37;;;;;;;9.23;3.65;;;;;;;4.57;67.07;91262.31;2056147;69;20145;-72
2023/01/09 03:23:04;;;;;;;5.40;3.40;;;;;;;4.72;66.92;91263.91;2055887;69;20130;-73
2023/01/09 03:25:31;;;;;;;6.07;3.40;;;;;;;4.71;67.40;91245.69;2056360;69;20161;-72
2023/01/09 03:28:03;;;;;;;6.40;3.10;;;;;;;4.81;67.39;91249.09;2056186;69;20177;-75
2023/01/09 03:30:30;;;;;;;4.90;3.03;;;;;;;4.95;67.12;91243.63;2054861;69;20142;-72
2023/01/09 03:32:56;;;;;;;4.88;2.80;;;;;;;4.99;68.22;91237.53;2055672;69;20165;-75
2023/01/09 03:35:23;;;;;;;2.20;1.50;;;;;;;5.06;70.16;91230.97;2055961;69;20194;-75
2023/01/09 03:37:50;;;;;;;6.53;3.88;;;;;;;4.27;73.43;91233.38;2056037;69;20181;-79
2023/01/09 03:40:21;;;;;;;4.97;2.80;;;;;;;4.55;72.12;91231.56;2055716;69;20244;-76
2023/01/09 03:42:46;;;;;;;4.50;2.70;;;;;;;4.78;71.40;91225.22;2051817;70;20138;-78
2023/01/09 03:45:13;;;;;;;5.80;3.90;;;;;;;4.52;73.65;91243.19;2055380;69;20203;-73
2023/01/09 03:47:39;;;;;;;8.68;4.03;;;;;;;4.43;73.47;91257.97;2056196;69;20169;-71
2023/01/09 03:50:05;;;;;;;11.85;4.78;;;;;;;4.70;72.86;91249.81;2056204;69;20149;-71
2023/01/09 03:52:34;;;;;;;6.43;3.60;;;;;;;4.81;74.07;91253.91;2057110;69;20207;-73
2023/01/09 03:55:01;;;;;;;5.32;2.47;;;;;;;4.92;73.39;91258.75;2056782;69;20158;-72
2023/01/09 03:57:27;;;;;;;7.70;4.45;;;;;;;4.27;77.76;91277.97;2055874;69;20269;-71
2023/01/09 03:59:52;;;;;;;7.00;3.65;;;;;;;4.21;78.63;91251.78;2055522;69;20158;-73
2023/01/09 04:02:18;;;;;;;13.00;7.57;;;;;;;4.45;77.08;91242.09;2055118;69;20157;-73
2023/01/09 04:04:44;;;;;;;15.38;7.97;;;;;;;4.72;75.51;91249.97;2054714;69;20154;-73
2023/01/09 04:07:09;;;;;;;10.52;5.82;;;;;;;4.80;75.56;91255.25;2053735;70;20197;-73
2023/01/09 04:09:35;;;;;;;8.38;4.45;;;;;;;4.92;75.07;91253.19;2054316;69;20150;-72
2023/01/09 04:12:01;;;;;;;5.50;3.10;;;;;;;5.02;74.54;91258.63;2054535;69;20158;-72
2023/01/09 04:14:26;;;;;;;6.38;4.40;;;;;;;5.06;75.39;91253.28;2054513;69;20146;-73
2023/01/09 04:16:53;;;;;;;4.88;2.80;;;;;;;5.11;75.00;91252.16;2054022;70;20162;-73
2023/01/09 04:19:19;;;;;;;3.47;1.52;;;;;;;5.21;74.63;91263.91;2054037;70;20154;-79
2023/01/09 04:21:44;;;;;;;1.20;1.10;;;;;;;5.36;73.44;91268.25;2054579;69;20161;-72
2023/01/09 04:24:10;;;;;;;1.65;1.00;;;;;;;5.30;75.48;91265.09;2054505;69;20150;-72
2023/01/09 04:26:36;;;;;;;3.20;1.70;;;;;;;5.36;74.84;91254.28;2054619;69;20169;-72
2023/01/09 04:29:02;;;;;;;2.40;1.80;;;;;;;5.38;74.02;91251.59;2054639;69;20162;-73
2023/01/09 04:31:28;;;;;;;2.20;1.85;;;;;;;5.38;74.70;91262.75;2054472;69;20146;-73
2023/01/09 04:33:53;;;;;;;3.95;1.42;;;;;;;5.37;74.35;91263.38;2054483;69;20204;-73
2023/01/09 04:36:19;;;;;;;2.97;1.70;;;;;;;5.27;75.93;91274.69;2054371;69;20185;-75
2023/01/09 04:38:46;;;;;;;3.28;1.50;;;;;;;5.31;74.71;91272.88;2054475;69;20510;-73
2023/01/09 04:41:47;;;;;;;1.58;1.20;;;;;;;5.43;75.14;91277.66;2054294;69;20217;-73
2023/01/09 04:43:57;;;;;;;8.85;4.93;;;;;;;4.84;78.04;91277.81;2054257;69;20181;-72
2023/01/09 04:46:23;;;;;;;7.78;3.90;;;;;;;4.78;79.12;91280.97;2054326;69;20157;-72
2023/01/09 04:48:49;;;;;;;5.70;3.33;;;;;;;5.05;78.17;91288.81;2051323;70;20177;-72
2023/01/09 04:51:15;;;;;;;4.63;3.33;;;;;;;5.26;76.21;91296.25;2054362;69;20154;-72
2023/01/09 04:53:40;;;;;;;7.78;3.65;;;;;;;5.28;75.84;91288.03;2054456;69;20240;-72
2023/01/09 04:56:07;;;;;;;5.25;3.50;;;;;;;5.34;75.71;91287.63;2053729;70;20149;-79
2023/01/09 04:58:32;;;;;;;4.90;3.25;;;;;;;5.22;76.03;91290.47;2054545;69;20154;-80
2023/01/09 05:00:58;;;;;;;5.70;3.50;;;;;;;5.34;76.08;91299.53;2054474;69;20590;-75
2023/01/09 05:03:23;;;;;;;6.20;2.95;;;;;;;5.33;76.35;91311.31;2054618;69;20237;-71
2023/01/09 05:05:50;;;;;;;3.10;2.15;;;;;;;5.37;76.06;91303.16;2054420;69;20173;-74
2023/01/09 05:08:15;;;;;;;3.42;1.83;;;;;;;5.46;74.69;91309.94;2054348;69;20146;-72
2023/01/09 05:10:41;;;;;;;1.50;1.40;;;;;;;5.46;75.65;91323.91;2054334;69;20209;-73
2023/01/09 05:13:09;;;;;;;2.28;1.60;;;;;;;5.12;78.49;91344.94;2053826;69;20215;-74
2023/01/09 05:15:34;;;;;;;6.90;4.13;;;;;;;4.75;80.06;91362.31;2053905;69;20271;-73
2023/01/09 05:18:00;;;;;;;6.97;4.05;;;;;;;5.03;78.53;91369.56;2054369;69;20146;-72
2023/01/09 05:20:25;;;;;;;6.88;3.53;;;;;;;5.22;76.54;91374.19;2054418;69;20157;-72
2023/01/09 05:22:51;;;;;;;4.93;3.28;;;;;;;5.22;77.34;91384.59;2054625;69;20196;-72
2023/01/09 05:25:16;;;;;;;14.50;5.25;;;;;;;4.70;78.21;91394.06;2054306;69;20145;-81
2023/01/09 05:27:45;;;;;;;9.60;4.60;;;;;;;4.70;80.18;91408.00;2053929;69;20216;-78
2023/01/09 05:30:12;;;;;;;7.75;4.63;;;;;;;5.07;78.17;91397.69;2054371;69;20172;-80
2023/01/09 05:32:37;;;;;;;8.00;4.60;;;;;;;5.14;78.21;91387.66;2054483;69;20486;-79
2023/01/09 05:35:03;;;;;;;7.22;3.20;;;;;;;5.25;77.53;91386.91;2054469;69;20563;-72
2023/01/09 05:37:29;;;;;;;4.65;2.85;;;;;;;5.41;75.90;91389.19;2054427;69;20276;-73
2023/01/09 05:39:54;;;;;;;4.70;2.53;;;;;;;5.42;76.74;91390.63;2054235;69;20153;-73
2023/01/09 05:42:21;;;;;;;4.68;2.60;;;;;;;5.49;76.33;91392.44;2053687;70;20145;-75
2023/01/09 05:44:47;;;;;;;3.83;2.30;;;;;;;5.48;75.69;91397.28;2052559;69;20526;-73
2023/01/09 05:47:14;;;;;;;4.25;1.90;;;;;;;5.39;78.46;91400.22;2051523;70;20138;-73
2023/01/09 05:49:40;;;;;;;3.22;1.83;;;;;;;5.51;76.70;91403.72;2050896;69;20260;-70
2023/01/09 05:52:07;;;;;;;3.03;1.80;;;;;;;5.56;76.42;91399.84;2050999;69;20135;-71
2023/01/09 05:54:33;;;;;;;1.95;1.45;;;;;;;5.54;77.12;91403.25;2050805;69;20605;-72
2023/01/09 05:57:01;;;;;;;1.55;0.90;;;;;;;5.58;76.82;91423.00;2050286;70;20606;-78
2023/01/09 05:59:26;;;;;;;3.47;1.90;;;;;;;4.78;80.46;91444.75;2051178;70;20257;-76
2023/01/09 06:01:53;;;;;;;4.03;2.28;;;;;;;4.57;81.41;91456.69;2050806;70;20497;-74
2023/01/09 06:04:19;;;;;;;3.97;2.13;;;;;;;4.91;79.71;91463.66;2051152;70;20217;-77
2023/01/09 06:06:44;;;;;;;2.88;1.90;;;;;;;5.28;78.58;91474.25;2051114;70;20135;-77
2023/01/09 06:09:10;;;;;;;3.92;2.15;;;;;;;5.44;77.71;91480.78;2051074;70;20317;-78
2023/01/09 06:11:37;;;;;;;5.15;2.00;;;;;;;5.40;76.33;91472.16;2051099;70;20162;-72
2023/01/09 06:14:04;;;;;;;3.33;1.50;;;;;;;5.34;77.47;91478.13;2051269;70;20176;-73
2023/01/09 06:16:32;;;;;;;5.18;2.70;;;;;;;5.07;78.76;91483.44;2051143;70;20173;-73
2023/01/09 06:18:58;;;;;;;4.80;2.15;;;;;;;4.91;79.63;91488.03;2051159;70;20154;-73
2023/01/09 06:21:23;;;;;;;3.28;1.83;;;;;;;5.16;78.37;91490.97;2050490;70;20146;-73
2023/01/09 06:23:49;;;;;;;5.38;2.53;;;;;;;5.04;79.90;91490.22;2050951;70;20170;-73
2023/01/09 06:26:15;;;;;;;6.05;2.90;;;;;;;5.10;80.25;91487.81;2050535;70;20229;-72
2023/01/09 06:28:40;;;;;;;5.47;2.50;;;;;;;5.28;79.16;91494.50;2050695;70;20282;-78
2023/01/09 06:31:06;;;;;;;3.33;2.00;;;;;;;5.13;79.00;91494.97;2051383;70;20157;-74
2023/01/09 06:33:31;;;;;;;4.03;3.00;;;;;;;4.92;80.91;91497.88;2051184;70;20146;-73
2023/01/09 06:35:57;;;;;;;3.90;2.58;;;;;;;5.18;79.58;91482.75;2051190;70;20166;-78
2023/01/09 06:38:23;;;;;;;3.08;2.30;;;;;;;5.43;78.43;91479.34;2050481;70;20149;-76
2023/01/09 06:40:49;;;;;;;3.53;2.00;;;;;;;5.49;78.18;91490.84;2050961;69;20138;-75
2023/01/09 06:43:15;;;;;;;3.10;2.10;;;;;;;5.41;78.14;91484.81;2050458;70;20150;-74
2023/01/09 06:45:43;;;;;;;4.28;2.15;;;;;;;5.42;78.54;91486.25;2050975;69;20174;-72
2023/01/09 06:48:09;;;;;;;4.50;2.45;;;;;;;5.37;78.48;91492.22;2050980;70;20130;-76
2023/01/09 06:50:35;;;;;;;5.85;3.35;;;;;;;5.38;78.68;91494.38;2051163;70;20161;-75
2023/01/09 06:53:00;;;;;;;5.55;3.00;;;;;;;5.52;76.80;91505.66;2051062;70;20146;-72
2023/01/09 06:55:26;;;;;;;2.97;2.20;;;;;;;5.47;78.44;91506.75;2050411;70;20138;-72
2023/01/09 06:57:52;;;;;;;2.15;1.70;;;;;;;5.44;78.20;91505.91;2051016;70;20145;-72
2023/01/09 07:00:18;;;;;;;2.63;1.95;;;;;;;5.43;78.64;91503.72;2050968;70;20169;-73
2023/01/09 07:02:43;;;;;;;4.32;2.00;;;;;;;5.43;78.14;91506.53;2051129;70;20241;-74
2023/01/09 07:05:10;;;;;;;9.98;4.70;;;;;;;5.41;77.97;91506.41;2051005;69;20166;-73
2023/01/09 07:07:37;;;;;;;20.77;8.98;;;;;;;5.21;78.52;91519.84;2051032;70;20158;-72
2023/01/09 07:10:04;;;;;;;29.85;15.10;;;;;;;5.31;78.18;91520.47;2050270;70;20626;-72
2023/01/09 07:12:29;;;;;;;53.08;26.77;;;;;;;5.31;78.58;91526.03;2050955;70;20196;-74
2023/01/09 07:14:55;;;;;;;40.60;20.30;;;;;;;5.31;78.44;91521.22;2050570;70;20130;-74
2023/01/09 07:17:22;;;;;;;32.40;16.90;;;;;;;5.33;77.95;91526.19;2050918;70;20154;-72
2023/01/09 07:19:47;;;;;;;20.27;10.35;;;;;;;5.34;77.82;91524.84;2050906;70;20503;-77
2023/01/09 07:22:17;;;;;;;14.15;6.65;;;;;;;5.38;78.05;91525.09;2050920;70;20630;-72
2023/01/09 07:24:43;;;;;;;10.23;4.50;;;;;;;5.35;78.61;91534.66;2050711;70;20151;-71
2023/01/09 07:27:10;;;;;;;4.55;2.88;;;;;;;5.42;77.37;91530.19;2050319;70;20161;-71
2023/01/09 07:29:36;;;;;;;4.25;2.28;;;;;;;5.41;77.46;91542.69;2050326;70;20150;-72
2023/01/09 07:32:02;;;;;;;3.10;2.28;;;;;;;5.52;77.67;91547.53;2050379;70;20162;-71
2023/01/09 07:34:28;;;;;;;7.47;3.25;;;;;;;5.45;78.36;91556.88;2050885;70;20229;-72
2023/01/09 07:36:54;;;;;;;9.10;5.40;;;;;;;5.30;79.05;91558.81;2050852;70;20138;-72
2023/01/09 07:39:20;;;;;;;9.15;6.22;;;;;;;5.33;78.98;91551.28;2050685;70;20164;-70
2023/01/09 07:41:45;;;;;;;9.40;5.90;;;;;;;5.44;78.53;91547.03;2050493;70;20217;-71
2023/01/09 07:44:13;;;;;;;5.03;3.28;;;;;;;5.48;77.89;91555.66;2050322;70;20146;-72
2023/01/09 07:46:40;;;;;;;5.47;3.40;;;;;;;5.47;77.81;91557.00;2050996;70;20621;-71
2023/01/09 07:49:06;;;;;;;4.05;3.10;;;;;;;5.55;77.88;91565.88;2050922;70;20582;-71
2023/01/09 07:51:31;;;;;;;5.53;4.10;;;;;;;5.61;76.86;91564.16;2050778;70;20153;-72
2023/01/09 07:53:57;;;;;;;6.95;4.50;;;;;;;5.59;77.31;91569.66;2050253;70;20186;-74
2023/01/09 07:56:23;;;;;;;6.82;4.55;;;;;;;5.63;77.64;91566.34;2050379;70;20146;-72
2023/01/09 07:58:49;;;;;;;8.18;4.32;;;;;;;5.63;77.91;91574.00;2050326;70;20250;-73
2023/01/09 08:01:15;;;;;;;12.70;7.00;;;;;;;5.45;78.35;91577.16;2050845;70;20543;-72
2023/01/09 08:03:41;;;;;;;12.15;6.13;;;;;;;5.60;77.83;91573.16;2050857;70;20162;-72
2023/01/09 08:06:06;;;;;;;5.70;3.45;;;;;;;5.53;78.16;91577.63;2050940;70;20150;-74
2023/01/09 08:08:32;;;;;;;3.75;1.92;;;;;;;5.70;78.04;91582.16;2050827;70;20221;-74
2023/01/09 08:10:58;;;;;;;6.10;1.90;;;;;;;5.81;77.15;91581.41;2050191;70;20205;-72
2023/01/09 08:13:23;;;;;;;2.45;1.70;;;;;;;5.87;76.66;91581.06;2050867;70;20170;-75
2023/01/09 08:15:49;;;;;;;7.63;4.80;;;;;;;5.75;77.23;91578.25;2050588;70;20150;-73
2023/01/09 08:18:14;;;;;;;7.22;4.88;;;;;;;5.77;77.48;91574.84;2051274;70;20147;-73
2023/01/09 08:20:40;;;;;;;9.07;4.45;;;;;;;5.84;77.75;91582.25;2050974;70;20256;-71
2023/01/09 08:23:06;;;;;;;11.70;5.53;;;;;;;5.75;77.95;91589.44;2051936;70;20213;-72
2023/01/09 08:25:32;;;;;;;10.82;5.43;;;;;;;5.60;78.28;91592.72;2051507;70;20264;-71
2023/01/09 08:27:58;;;;;;;13.05;7.20;;;;;;;5.79;78.50;91586.88;2051568;70;20143;-72
2023/01/09 08:30:24;;;;;;;14.65;7.43;;;;;;;5.96;76.98;91590.69;2052031;69;20158;-72
2023/01/09 08:32:51;;;;;;;17.50;8.77;;;;;;;5.94;77.90;91593.34;2052152;69;20158;-72
2023/01/09 08:35:17;;;;;;;13.18;7.50;;;;;;;6.09;77.38;91587.25;2052075;70;20177;-71
2023/01/09 08:37:47;;;;;;;11.15;5.95;;;;;;;6.07;77.84;91595.53;2051577;69;20186;-72
2023/01/09 08:40:14;;;;;;;9.25;4.93;;;;;;;6.18;77.79;91591.25;2051300;70;20176;-73
2023/01/09 08:48:10;;;;;;;14.18;7.10;;;;;;;6.33;77.14;91599.13;2051502;69;20372;-72
2023/01/09 08:50:36;;;;;;;21.50;10.90;;;;;;;6.24;77.88;91597.22;2050877;70;20172;-74
2023/01/09 08:53:01;;;;;;;16.35;9.18;;;;;;;6.30;77.01;91600.34;2051418;70;20490;-72
2023/01/09 08:55:27;;;;;;;16.33;10.45;;;;;;;6.31;77.33;91599.72;2050611;70;20224;-72
2023/01/09 08:57:53;;;;;;;17.42;10.45;;;;;;;6.41;77.42;91598.88;2051274;69;20204;-72
2023/01/09 09:00:22;;;;;;;15.38;9.68;;;;;;;6.38;78.24;91597.31;2051572;70;20154;-71
2023/01/09 09:02:55;;;;;;;18.33;11.73;;;;;;;6.51;76.71;91589.00;2053003;70;20245;-74
2023/01/09 09:05:22;;;;;;;18.45;10.55;;;;;;;6.51;77.35;91591.81;2051575;70;20161;-72
2023/01/09 09:07:55;;;;;;;14.93;9.35;;;;;;;6.60;77.18;91604.19;2050923;70;20138;-72
2023/01/09 09:10:22;;;;;;;14.55;9.00;;;;;;;6.44;77.24;91597.66;2051436;69;20321;-73
2023/01/09 09:12:50;;;;;;;13.88;9.55;;;;;;;6.43;77.50;91602.53;2051289;70;20146;-72
2023/01/09 09:15:22;;;;;;;81.45;41.28;;;;;;;6.02;80.00;91600.13;2050782;70;20198;-73
2023/01/09 09:17:57;;;;;;;37.53;20.27;;;;;;;6.40;78.53;91620.50;2050829;70;20147;-74
2023/01/09 09:20:25;;;;;;;20.23;11.75;;;;;;;6.60;77.61;91618.19;2051337;70;20652;-73
2023/01/09 09:22:52;;;;;;;18.65;9.80;;;;;;;6.75;77.54;91633.69;2050594;70;20150;-73
2023/01/09 09:25:19;;;;;;;21.80;11.35;;;;;;;6.90;77.05;91632.44;2051145;70;20587;-75
2023/01/09 09:27:44;;;;;;;15.55;9.93;;;;;;;7.00;76.73;91636.53;2051162;69;20149;-73
2023/01/09 09:30:12;;;;;;;18.63;9.27;;;;;;;7.06;75.75;91631.28;2051348;70;20265;-74
2023/01/09 09:32:40;;;;;;;16.30;9.65;;;;;;;7.00;75.59;91633.72;2051019;70;20205;-76
2023/01/09 09:35:07;;;;;;;10.40;6.90;;;;;;;6.93;76.79;91640.31;2051405;70;20589;-77
2023/01/09 09:37:32;;;;;;;17.05;10.45;;;;;;;6.67;76.72;91631.16;2051203;70;20157;-74
2023/01/09 09:39:59;;;;;;;10.55;7.13;;;;;;;6.79;76.98;91631.84;2051003;69;20143;-78
2023/01/09 09:45:33;;;;;;;;;;;;;;;7.19;76.53;91635.47;2051319;69;20130;-76
2023/01/09 09:48:16;;;;;;;12.73;7.70;;;;;;;7.26;75.77;91628.16;2051325;70;20039;-76
2023/01/09 09:51:00;;;;;;;6.95;4.47;;;;;;;7.44;74.14;91629.16;2051118;70;20213;-75
2023/01/09 09:53:29;;;;;;;13.80;7.22;;;;;;;7.22;75.01;91622.31;2051329;70;20340;-79
2023/01/09 09:55:56;;;;;;;9.38;5.55;;;;;;;6.71;75.92;91623.00;2050504;70;20142;-77
2023/01/09 09:58:37;;;;;;;12.95;7.20;;;;;;;6.78;77.77;91627.59;2051029;69;20138;-79
2023/01/09 10:01:04;;;;;;;12.40;7.13;;;;;;;7.13;75.76;91621.88;2050550;70;20298;-75
2023/01/09 10:03:38;;;;;;;13.70;7.28;;;;;;;7.58;74.65;91613.13;2051062;70;20253;-76
2023/01/09 10:06:11;;;;;;;13.30;7.40;;;;;;;7.78;74.08;91619.06;2050560;70;20138;-74
2023/01/09 10:08:45;;;;;;;14.77;6.78;;;;;;;7.88;73.67;91607.69;2051106;70;20154;-77
2023/01/09 10:11:19;;;;;;;7.45;5.03;;;;;;;7.76;72.79;91582.56;2050959;70;20200;-77
2023/01/09 10:16:34;;;;;;;5.93;3.55;;;;;;;7.59;71.76;91597.75;2051177;69;20178;-74
2023/01/09 10:19:19;;;;;;;8.50;3.10;;;;;;;7.59;69.93;91594.25;2051091;70;20161;-76
2023/01/09 10:22:05;;;;;;;15.43;9.27;;;;;;;7.30;74.92;91597.59;2051133;70;20580;-73
2023/01/09 10:24:49;;;;;;;10.02;5.72;;;;;;;8.02;73.16;91585.31;2051114;69;20511;-74
2023/01/09 10:27:26;;;;;;;8.23;5.28;;;;;;;8.25;72.31;91576.69;2050640;70;20245;-74
2023/01/09 10:30:06;;;;;;;7.63;4.60;;;;;;;8.27;71.23;91592.88;2051034;70;20148;-73
2023/01/09 10:32:35;;;;;;;7.93;4.82;;;;;;;8.38;71.96;91592.06;2050977;70;20130;-74
2023/01/09 10:35:07;;;;;;;4.93;2.80;;;;;;;8.46;69.68;91586.16;2051247;69;20166;-74
2023/01/09 10:37:41;;;;;;;3.00;1.88;;;;;;;8.19;66.47;91586.84;2051212;69;20229;-72
2023/01/09 10:40:23;;;;;;;7.53;4.78;;;;;;;7.62;71.94;91582.53;2050961;70;20143;-76
2023/01/09 10:43:09;;;;;;;6.85;4.00;;;;;;;7.98;70.78;91596.28;2051043;70;20170;-73
2023/01/09 10:45:45;;;;;;;5.47;3.50;;;;;;;8.11;69.97;91596.31;2050456;70;20285;-73
2023/01/09 10:48:36;;;;;;;5.53;3.53;;;;;;;8.13;69.59;91604.81;2050514;70;20151;-73
2023/01/09 10:51:13;;;;;;;7.68;4.63;;;;;;;7.93;70.00;91600.25;2051217;70;20223;-73
2023/01/09 10:53:42;;;;;;;6.90;4.28;;;;;;;7.95;69.52;91595.44;2050703;70;20158;-73
2023/01/09 10:56:23;;;;;;;7.57;4.80;;;;;;;7.61;70.41;91599.97;2050788;70;20148;-73
2023/01/09 10:58:50;;;;;;;10.70;6.18;;;;;;;7.73;69.80;91606.19;2050436;70;20152;-73
2023/01/09 11:01:33;;;;;;;12.32;5.80;;;;;;;8.12;70.08;91608.25;2050992;69;20253;-73
2023/01/09 11:04:01;;;;;;;14.95;8.13;;;;;;;7.95;70.21;91606.66;2050930;70;20245;-73
2023/01/09 11:07:01;;;;;;;10.50;5.60;;;;;;;7.97;71.87;91598.38;2050397;70;20142;-73
2023/01/09 11:09:26;;;;;;;6.20;4.07;;;;;;;8.03;71.55;91595.16;2043470;70;20154;-73
2023/01/09 11:11:53;;;;;;;5.28;4.18;;;;;;;8.12;72.13;91603.38;2043447;70;20256;-73
2023/01/09 11:14:26;;;;;;;7.85;4.80;;;;;;;8.22;72.26;91605.97;2040802;70;20207;-73
2023/01/09 11:16:57;;;;;;;8.38;5.07;;;;;;;8.25;71.29;91596.31;2043489;70;20155;-73
2023/01/09 11:19:43;;;;;;;9.93;5.93;;;;;;;8.13;70.76;91601.28;2043546;70;20219;-72
2023/01/09 11:22:16;;;;;;;8.65;5.07;;;;;;;8.00;69.98;91594.31;2040224;70;20532;-72
2023/01/09 11:24:43;;;;;;;10.57;7.18;;;;;;;7.97;70.27;91581.56;2040006;70;20687;-73
2023/01/09 11:27:22;;;;;;;11.32;6.38;;;;;;;8.04;70.56;91591.00;2040323;70;20147;-72
2023/01/09 11:30:14;;;;;;;19.35;10.20;;;;;;;7.93;70.64;91586.22;2040182;70;20535;-74
2023/01/09 11:32:41;;;;;;;17.05;8.65;;;;;;;8.09;69.34;91584.97;2040209;70;20254;-74
2023/01/09 11:35:21;;;;;;;8.40;4.20;;;;;;;7.63;71.49;91586.06;2040222;70;20242;-73
2023/01/09 11:37:48;;;;;;;2.60;1.58;;;;;;;7.78;68.39;91587.53;2040132;70;20246;-73
2023/01/09 11:40:44;;;;;;;4.68;2.58;;;;;;;8.06;68.38;91585.50;2040126;70;20139;-71
2023/01/09 11:43:15;;;;;;;5.55;3.00;;;;;;;8.16;67.99;91588.84;2040216;70;20235;-72
2023/01/09 11:45:55;;;;;;;5.75;3.38;;;;;;;8.10;68.54;91591.31;2042565;70;20174;-73
2023/01/09 11:48:53;;;;;;;5.82;3.05;;;;;;;8.27;69.03;91593.59;2046720;70;20269;-73
2023/01/09 11:51:23;;;;;;;5.30;3.50;;;;;;;7.99;70.02;91590.06;2046696;70;20556;-72
2023/01/09 11:54:01;;;;;;;9.88;6.25;;;;;;;7.93;70.14;91591.84;2043965;70;20131;-73
2023/01/09 11:56:28;;;;;;;11.73;7.60;;;;;;;7.61;71.85;91597.16;2047016;70;20161;-72
2023/01/09 11:58:53;;;;;;;7.28;3.97;;;;;;;7.56;71.28;91593.41;2047286;70;20147;-72
2023/01/09 12:01:32;;;;;;;5.78;3.40;;;;;;;7.59;70.50;91580.97;2047174;70;20146;-72
2023/01/09 12:04:27;;;;;;;4.30;2.70;;;;;;;7.26;71.46;91583.38;2047186;70;20192;-72
2023/01/09 12:07:13;;;;;;;4.13;2.05;;;;;;;7.56;68.52;91579.41;2047163;70;20198;-72